Main page
METAR-TAF:

METAR-TAF

Airports :

Malekoula Airport

Malakula, Vanuatu

latitude: 16-27-26S, longitude: 167-49-42E, elevation: 2 m

METAR: missing

Time: 10:13 (23:13 UTC)

Forecast

The report was made 7 hours and 13 minutes ago, at 16:00 UTC
Forecast valid from 01 at 18 UTC to 02 at 18 UTC
Wind 2 kt from variable directions
Visibility 10 km or more
Scattered clouds at a height of 2000 ft

TAF: NVSL 011600Z 0118/0218 VRB02KT 9999 SCT020

Weather observations and forecasts of more than 4000 airports (METAR and TAF reports).

The available stations are represented by yellow and red dots on the map.

Hover mouse over dot to see the name of the station.

Then click to see weather observations and forecasts.

To change the map : click on the green buttons with a black cross to zoom in, on the green button with a dash to zoom out, or on the green arrows for adjacent maps.


METAR-TAF: